sensor_id;sensor_type;location;lat;lon;timestamp;temperature;humidity
35244;DHT22;37916;52.160;21.066;2023-04-03T00:07:57;2.30;65.20
35244;DHT22;37916;52.160;21.066;2023-04-03T00:17:58;2.10;64.90
35244;DHT22;37916;52.160;21.066;2023-04-03T00:27:58;2.00;64.70
35244;DHT22;37916;52.160;21.066;2023-04-03T00:37:59;1.80;66.00
35244;DHT22;37916;52.160;21.066;2023-04-03T00:48:02;1.60;65.70
35244;DHT22;37916;52.160;21.066;2023-04-03T00:58:07;1.50;64.50
35244;DHT22;37916;52.160;21.066;2023-04-03T01:08:08;1.40;65.00
35244;DHT22;37916;52.160;21.066;2023-04-03T01:18:10;1.20;66.20
35244;DHT22;37916;52.160;21.066;2023-04-03T01:28:16;1.10;65.40
35244;DHT22;37916;52.160;21.066;2023-04-03T01:38:18;1.00;65.90
35244;DHT22;37916;52.160;21.066;2023-04-03T01:48:18;0.80;65.90
35244;DHT22;37916;52.160;21.066;2023-04-03T01:58:19;0.70;66.10
35244;DHT22;37916;52.160;21.066;2023-04-03T02:08:20;0.60;66.60
35244;DHT22;37916;52.160;21.066;2023-04-03T02:18:20;0.50;66.90
35244;DHT22;37916;52.160;21.066;2023-04-03T02:28:21;0.40;67.10
35244;DHT22;37916;52.160;21.066;2023-04-03T02:38:23;0.30;67.60
35244;DHT22;37916;52.160;21.066;2023-04-03T02:48:24;0.20;67.60
35244;DHT22;37916;52.160;21.066;2023-04-03T02:58:24;0.10;68.00
35244;DHT22;37916;52.160;21.066;2023-04-03T03:08:25;0.00;68.10
35244;DHT22;37916;52.160;21.066;2023-04-03T03:18:26;0.00;68.40
35244;DHT22;37916;52.160;21.066;2023-04-03T03:28:27;-0.10;69.60
35244;DHT22;37916;52.160;21.066;2023-04-03T03:38:27;-0.20;69.60
35244;DHT22;37916;52.160;21.066;2023-04-03T03:48:28;-0.20;69.50
35244;DHT22;37916;52.160;21.066;2023-04-03T03:58:29;-0.30;69.90
35244;DHT22;37916;52.160;21.066;2023-04-03T04:08:30;-0.40;70.50
35244;DHT22;37916;52.160;21.066;2023-04-03T04:18:30;-0.40;70.30
35244;DHT22;37916;52.160;21.066;2023-04-03T04:28:31;-0.50;71.00
35244;DHT22;37916;52.160;21.066;2023-04-03T04:38:32;-0.60;71.10
35244;DHT22;37916;52.160;21.066;2023-04-03T04:48:33;-0.60;71.30
35244;DHT22;37916;52.160;21.066;2023-04-03T04:58:34;-0.60;71.00
35244;DHT22;37916;52.160;21.066;2023-04-03T05:08:35;-0.50;71.20
35244;DHT22;37916;52.160;21.066;2023-04-03T05:18:36;-0.50;71.00
35244;DHT22;37916;52.160;21.066;2023-04-03T05:28:37;-0.30;70.60
35244;DHT22;37916;52.160;21.066;2023-04-03T05:38:43;-0.10;69.90
35244;DHT22;37916;52.160;21.066;2023-04-03T05:48:44;0.40;68.00
35244;DHT22;37916;52.160;21.066;2023-04-03T05:58:45;0.60;65.90
35244;DHT22;37916;52.160;21.066;2023-04-03T06:08:46;1.30;64.80
35244;DHT22;37916;52.160;21.066;2023-04-03T06:18:47;1.30;63.20
35244;DHT22;37916;52.160;21.066;2023-04-03T06:28:48;1.50;62.80
35244;DHT22;37916;52.160;21.066;2023-04-03T06:38:48;1.90;61.40
35244;DHT22;37916;52.160;21.066;2023-04-03T06:48:52;1.70;61.50
35244;DHT22;37916;52.160;21.066;2023-04-03T06:58:54;1.80;61.10
35244;DHT22;37916;52.160;21.066;2023-04-03T07:08:55;1.90;60.10
35244;DHT22;37916;52.160;21.066;2023-04-03T07:18:56;2.20;60.10
35244;DHT22;37916;52.160;21.066;2023-04-03T07:28:57;2.60;57.60
35244;DHT22;37916;52.160;21.066;2023-04-03T07:38:58;2.50;56.40
35244;DHT22;37916;52.160;21.066;2023-04-03T07:48:59;3.70;54.70
35244;DHT22;37916;52.160;21.066;2023-04-03T07:59:00;3.10;54.30
35244;DHT22;37916;52.160;21.066;2023-04-03T08:09:01;3.20;52.30
35244;DHT22;37916;52.160;21.066;2023-04-03T08:19:02;3.20;52.40
35244;DHT22;37916;52.160;21.066;2023-04-03T08:29:03;3.10;53.10
35244;DHT22;37916;52.160;21.066;2023-04-03T08:39:04;3.30;49.10
35244;DHT22;37916;52.160;21.066;2023-04-03T08:49:14;3.10;48.10
35244;DHT22;37916;52.160;21.066;2023-04-03T08:59:43;3.70;47.50
35244;DHT22;37916;52.160;21.066;2023-04-03T09:09:47;3.80;45.80
35244;DHT22;37916;52.160;21.066;2023-04-03T09:30:25;3.50;44.40
35244;DHT22;37916;52.160;21.066;2023-04-03T09:50:28;3.90;44.60
35244;DHT22;37916;52.160;21.066;2023-04-03T10:00:40;3.60;44.80
35244;DHT22;37916;52.160;21.066;2023-04-03T10:10:46;3.40;43.90
35244;DHT22;37916;52.160;21.066;2023-04-03T10:20:49;3.70;45.70
35244;DHT22;37916;52.160;21.066;2023-04-03T10:51:47;3.90;44.00
35244;DHT22;37916;52.160;21.066;2023-04-03T11:01:52;4.10;42.00
35244;DHT22;37916;52.160;21.066;2023-04-03T11:12:18;4.80;41.90
35244;DHT22;37916;52.160;21.066;2023-04-03T11:22:36;5.10;40.30
35244;DHT22;37916;52.160;21.066;2023-04-03T11:43:28;4.80;41.50
35244;DHT22;37916;52.160;21.066;2023-04-03T11:53:34;4.50;42.50
35244;DHT22;37916;52.160;21.066;2023-04-03T12:34:28;5.20;40.10
35244;DHT22;37916;52.160;21.066;2023-04-03T12:54:56;5.10;40.90
35244;DHT22;37916;52.160;21.066;2023-04-03T13:05:08;4.90;39.40
35244;DHT22;37916;52.160;21.066;2023-04-03T13:16:01;5.30;39.30
35244;DHT22;37916;52.160;21.066;2023-04-03T13:25:43;5.00;38.90
35244;DHT22;37916;52.160;21.066;2023-04-03T13:35:46;5.30;38.70
35244;DHT22;37916;52.160;21.066;2023-04-03T13:46:27;5.20;37.70
35244;DHT22;37916;52.160;21.066;2023-04-03T13:56:31;5.10;40.30
35244;DHT22;37916;52.160;21.066;2023-04-03T14:06:32;5.30;40.60
35244;DHT22;37916;52.160;21.066;2023-04-03T14:16:38;5.20;39.10
35244;DHT22;37916;52.160;21.066;2023-04-03T14:26:39;5.20;40.20
35244;DHT22;37916;52.160;21.066;2023-04-03T14:36:43;5.30;39.70
35244;DHT22;37916;52.160;21.066;2023-04-03T14:46:44;5.30;39.60
35244;DHT22;37916;52.160;21.066;2023-04-03T14:57:01;5.20;39.50
35244;DHT22;37916;52.160;21.066;2023-04-03T15:07:03;5.20;40.20
35244;DHT22;37916;52.160;21.066;2023-04-03T15:17:05;5.10;39.80
35244;DHT22;37916;52.160;21.066;2023-04-03T15:27:06;5.20;39.90
35244;DHT22;37916;52.160;21.066;2023-04-03T15:37:06;5.20;39.30
35244;DHT22;37916;52.160;21.066;2023-04-03T15:47:07;4.90;40.80
35244;DHT22;37916;52.160;21.066;2023-04-03T15:57:11;4.90;41.10
35244;DHT22;37916;52.160;21.066;2023-04-03T16:07:12;4.90;40.30
35244;DHT22;37916;52.160;21.066;2023-04-03T16:17:18;4.90;41.30
35244;DHT22;37916;52.160;21.066;2023-04-03T16:27:30;4.70;42.20
35244;DHT22;37916;52.160;21.066;2023-04-03T16:37:31;4.60;42.70
35244;DHT22;37916;52.160;21.066;2023-04-03T16:47:32;4.40;42.30
35244;DHT22;37916;52.160;21.066;2023-04-03T16:57:32;4.30;42.60
35244;DHT22;37916;52.160;21.066;2023-04-03T17:07:36;4.30;43.10
35244;DHT22;37916;52.160;21.066;2023-04-03T17:17:40;4.20;43.90
35244;DHT22;37916;52.160;21.066;2023-04-03T17:27:41;4.10;44.00
35244;DHT22;37916;52.160;21.066;2023-04-03T17:37:42;4.00;44.70
35244;DHT22;37916;52.160;21.066;2023-04-03T17:57:53;3.90;45.90
35244;DHT22;37916;52.160;21.066;2023-04-03T18:07:54;3.90;45.90
35244;DHT22;37916;52.160;21.066;2023-04-03T18:17:55;3.80;46.40
35244;DHT22;37916;52.160;21.066;2023-04-03T18:27:57;3.70;46.80
35244;DHT22;37916;52.160;21.066;2023-04-03T18:37:59;3.70;47.40
35244;DHT22;37916;52.160;21.066;2023-04-03T18:58:51;3.70;48.10
35244;DHT22;37916;52.160;21.066;2023-04-03T19:08:56;3.60;49.40
35244;DHT22;37916;52.160;21.066;2023-04-03T19:29:10;3.30;54.70
35244;DHT22;37916;52.160;21.066;2023-04-03T19:39:11;3.20;55.80
35244;DHT22;37916;52.160;21.066;2023-04-03T19:49:14;3.10;56.30
35244;DHT22;37916;52.160;21.066;2023-04-03T19:59:18;3.00;56.30
35244;DHT22;37916;52.160;21.066;2023-04-03T20:09:19;3.00;56.50
35244;DHT22;37916;52.160;21.066;2023-04-03T20:19:21;3.00;56.50
35244;DHT22;37916;52.160;21.066;2023-04-03T20:29:25;2.90;57.00
35244;DHT22;37916;52.160;21.066;2023-04-03T20:39:29;2.80;57.50
35244;DHT22;37916;52.160;21.066;2023-04-03T20:49:32;2.80;57.80
35244;DHT22;37916;52.160;21.066;2023-04-03T20:59:33;2.70;58.50
35244;DHT22;37916;52.160;21.066;2023-04-03T21:20:13;2.40;60.00
35244;DHT22;37916;52.160;21.066;2023-04-03T21:30:14;2.30;60.90
35244;DHT22;37916;52.160;21.066;2023-04-03T21:40:15;2.30;60.80
35244;DHT22;37916;52.160;21.066;2023-04-03T21:50:16;2.00;61.70
35244;DHT22;37916;52.160;21.066;2023-04-03T22:00:22;2.00;62.10
35244;DHT22;37916;52.160;21.066;2023-04-03T22:10:23;1.90;62.50
35244;DHT22;37916;52.160;21.066;2023-04-03T22:20:24;1.80;63.10
35244;DHT22;37916;52.160;21.066;2023-04-03T22:30:24;1.70;63.60
35244;DHT22;37916;52.160;21.066;2023-04-03T22:40:25;1.60;64.00
35244;DHT22;37916;52.160;21.066;2023-04-03T22:50:26;1.40;64.70
35244;DHT22;37916;52.160;21.066;2023-04-03T23:00:27;1.30;65.60
35244;DHT22;37916;52.160;21.066;2023-04-03T23:10:28;1.20;66.30
35244;DHT22;37916;52.160;21.066;2023-04-03T23:20:29;1.10;66.10
35244;DHT22;37916;52.160;21.066;2023-04-03T23:30:29;1.00;66.40
35244;DHT22;37916;52.160;21.066;2023-04-03T23:40:30;0.90;67.20
35244;DHT22;37916;52.160;21.066;2023-04-03T23:50:31;0.70;67.70
